Time;durP1;ratioP1;P1;durP2;ratioP2;P2;SDS_P1;SDS_P2;PMS_P1;PMS_P2;Temp;Humidity;BMP_temperature;BMP_pressure;BME280_temperature;BME280_humidity;BME280_pressure;Samples;Min_cycle;Max_cycle;Signal;HPM_P1;HPM_P2
2022/10/16 00:01:12;;;;;;;8.30;6.12;;;;;;;20.29;43.59;101650.34;1762865;80;21044;-82
2022/10/16 00:03:40;;;;;;;9.08;6.58;;;;;;;20.29;43.58;101651.73;1763322;80;21482;-82
2022/10/16 00:06:07;;;;;;;9.58;6.65;;;;;;;20.29;43.58;101658.11;1762847;80;21036;-82
2022/10/16 00:08:33;;;;;;;8.85;6.60;;;;;;;20.29;43.55;101661.40;1763113;81;21063;-82
2022/10/16 00:11:12;;;;;;;10.35;7.03;;;;;;;20.28;43.55;101652.87;1762999;80;21005;-82
2022/10/16 00:13:39;;;;;;;8.73;6.08;;;;;;;20.28;43.54;101660.61;1753629;80;21060;-82
2022/10/16 00:16:06;;;;;;;8.48;6.15;;;;;;;20.28;43.52;101655.08;1752885;81;21491;-82
2022/10/16 00:18:32;;;;;;;8.35;6.30;;;;;;;20.29;43.57;101664.16;1752784;81;21086;-82
2022/10/16 00:21:08;;;;;;;9.15;5.95;;;;;;;20.28;43.54;101663.37;1752678;81;21095;-82
2022/10/16 00:23:34;;;;;;;10.45;6.15;;;;;;;20.27;43.54;101661.72;1752554;81;22124;-82
2022/10/16 00:26:04;;;;;;;8.98;6.28;;;;;;;20.28;43.54;101661.16;1727052;81;20996;-82
2022/10/16 00:28:30;;;;;;;10.38;6.70;;;;;;;20.28;43.53;101665.30;1753172;81;21119;-82
2022/10/16 00:30:57;;;;;;;10.08;6.78;;;;;;;20.27;43.54;101667.80;1698337;81;21099;-82
2022/10/16 00:33:23;;;;;;;8.75;6.58;;;;;;;20.28;43.52;101661.16;1752660;81;21028;-82
2022/10/16 00:36:05;;;;;;;10.80;7.20;;;;;;;20.27;43.52;101659.50;1729280;81;21894;-82
2022/10/16 00:38:31;;;;;;;10.25;7.03;;;;;;;20.26;43.50;101660.06;1752657;81;21060;-82
2022/10/16 00:40:58;;;;;;;7.47;5.87;;;;;;;20.27;43.48;101661.72;1752986;81;21537;-83
2022/10/16 00:43:50;;;;;;;7.75;6.62;;;;;;;20.26;43.47;101665.59;1752994;81;21032;-82
2022/10/16 00:46:22;;;;;;;8.78;7.05;;;;;;;20.27;43.47;101666.41;1752759;81;21106;-82
2022/10/16 00:48:54;;;;;;;10.03;7.00;;;;;;;20.25;43.48;101667.25;1752943;81;21058;-82
2022/10/16 00:51:25;;;;;;;11.70;7.03;;;;;;;20.26;43.47;101671.67;1752351;81;21056;-82
2022/10/16 00:53:51;;;;;;;8.28;6.37;;;;;;;20.25;43.49;101664.48;1729551;83;21017;-83
2022/10/16 00:56:17;;;;;;;9.45;6.90;;;;;;;20.24;43.49;101669.19;1728136;83;21072;-82
2022/10/16 00:58:44;;;;;;;10.60;7.08;;;;;;;20.25;43.49;101667.25;1740507;81;21483;-82
2022/10/16 01:01:10;;;;;;;11.22;6.30;;;;;;;20.25;43.48;101663.11;1713969;82;21234;-82
2022/10/16 01:03:37;;;;;;;10.23;7.17;;;;;;;20.24;43.46;101658.72;1740917;81;21045;-82
2022/10/16 01:06:14;;;;;;;8.35;7.33;;;;;;;20.24;43.46;101661.48;1740595;82;21082;-82
2022/10/16 01:09:06;;;;;;;9.80;6.70;;;;;;;20.24;43.46;101660.90;1739140;82;21397;-83
2022/10/16 01:11:55;;;;;;;11.30;7.45;;;;;;;20.23;43.45;101663.42;1740557;82;21102;-85
2022/10/16 01:14:39;;;;;;;9.45;6.47;;;;;;;20.23;43.45;101658.45;1696840;84;21178;-84
2022/10/16 01:17:20;;;;;;;8.88;6.80;;;;;;;20.23;43.44;101663.98;1700134;83;21014;-85
2022/10/16 01:20:09;;;;;;;9.55;6.83;;;;;;;20.22;43.43;101665.91;1696410;83;21499;-82
2022/10/16 01:22:47;;;;;;;8.75;6.53;;;;;;;20.22;43.43;101669.23;1696459;84;22241;-82
2022/10/16 01:25:22;;;;;;;8.68;6.78;;;;;;;20.21;43.43;101672.55;1696718;83;21023;-82
2022/10/16 01:27:48;;;;;;;9.38;6.28;;;;;;;20.21;43.43;101670.34;1696246;84;21065;-82
2022/10/16 01:30:26;;;;;;;10.10;7.62;;;;;;;20.20;43.43;101677.80;1664104;83;21155;-82
2022/10/16 01:33:03;;;;;;;9.08;6.87;;;;;;;20.20;43.43;101676.42;1669918;86;21102;-82
2022/10/16 01:35:45;;;;;;;9.28;6.45;;;;;;;20.20;43.43;101685.30;1640122;86;21130;-81
2022/10/16 01:38:34;;;;;;;8.68;6.92;;;;;;;20.21;43.40;101678.63;1670012;84;21122;-81
2022/10/16 01:41:04;;;;;;;13.00;6.83;;;;;;;20.20;43.39;101683.91;1670295;86;21240;-81
2022/10/16 01:43:43;;;;;;;9.53;6.72;;;;;;;20.18;43.40;101677.30;1691815;83;21502;-81
2022/10/16 01:46:10;;;;;;;9.95;7.08;;;;;;;20.18;43.41;101682.81;1691756;84;21411;-82
2022/10/16 01:48:36;;;;;;;9.15;7.15;;;;;;;20.18;43.40;101681.98;1691429;84;21068;-82
2022/10/16 01:51:08;;;;;;;9.93;7.28;;;;;;;20.18;43.43;101687.52;1691970;83;21138;-82
2022/10/16 01:53:35;;;;;;;9.68;6.83;;;;;;;20.18;43.41;101688.34;1670248;84;21135;-82
2022/10/16 01:56:02;;;;;;;9.05;6.72;;;;;;;20.18;43.39;101691.66;1669960;84;21543;-82
2022/10/16 01:58:30;;;;;;;11.83;7.70;;;;;;;20.18;43.39;101691.66;1670389;86;21046;-82
2022/10/16 02:00:56;;;;;;;11.40;7.10;;;;;;;20.17;43.39;101694.16;1664655;84;21068;-82
2022/10/16 02:03:22;;;;;;;9.60;6.47;;;;;;;20.18;43.38;101695.25;1670071;86;21059;-82
2022/10/16 02:05:54;;;;;;;10.00;7.25;;;;;;;20.18;43.37;101699.39;1671308;84;21680;-82
2022/10/16 02:08:22;;;;;;;9.18;6.85;;;;;;;20.17;43.34;101698.30;1692869;83;21088;-82
2022/10/16 02:10:49;;;;;;;8.33;6.80;;;;;;;20.18;43.34;101697.19;1692502;83;21510;-82
2022/10/16 02:13:23;;;;;;;8.83;7.22;;;;;;;20.18;43.33;101701.33;1675640;83;21074;-82
2022/10/16 02:15:50;;;;;;;9.55;7.12;;;;;;;20.18;43.32;101702.16;1691198;83;21121;-83
2022/10/16 02:18:16;;;;;;;8.05;6.80;;;;;;;20.18;43.33;101709.62;1721547;82;21168;-83
2022/10/16 02:21:00;;;;;;;8.40;6.95;;;;;;;20.18;43.34;101705.48;1749823;82;21055;-83
2022/10/16 02:23:49;;;;;;;8.90;7.28;;;;;;;20.17;43.34;101711.55;1749183;80;21077;-83
2022/10/16 02:26:18;;;;;;;8.58;6.67;;;;;;;20.18;43.31;101712.38;1749613;80;20961;-83
2022/10/16 02:28:48;;;;;;;8.30;6.90;;;;;;;20.17;43.30;101712.94;1749616;82;21001;-83
2022/10/16 02:31:18;;;;;;;8.50;6.78;;;;;;;20.17;43.28;101719.02;1749912;80;21073;-83
2022/10/16 02:33:44;;;;;;;10.32;7.10;;;;;;;20.16;43.28;101720.12;1749989;82;20975;-83
2022/10/16 02:36:10;;;;;;;8.98;7.05;;;;;;;20.16;43.28;101721.51;1720289;82;21048;-83
2022/10/16 02:38:37;;;;;;;9.85;7.28;;;;;;;20.16;43.29;101727.03;1716370;82;21012;-83
2022/10/16 02:41:04;;;;;;;10.23;7.35;;;;;;;20.16;43.28;101725.65;1749884;80;21055;-83
2022/10/16 02:43:31;;;;;;;8.25;6.78;;;;;;;20.15;43.28;101724.86;1753839;81;21201;-82
2022/10/16 02:45:57;;;;;;;8.50;7.30;;;;;;;20.15;43.27;101726.23;1755357;81;21510;-82
2022/10/16 02:48:23;;;;;;;9.85;6.60;;;;;;;20.15;43.28;101730.94;1727295;81;21020;-84
2022/10/16 02:50:50;;;;;;;10.58;7.35;;;;;;;20.15;43.26;101724.86;1725559;81;21138;-82
2022/10/16 02:53:17;;;;;;;9.55;6.65;;;;;;;20.15;43.24;101725.41;1755434;81;21517;-82
2022/10/16 02:55:43;;;;;;;10.03;7.30;;;;;;;20.15;43.24;101730.38;1755633;81;21186;-83
2022/10/16 02:58:09;;;;;;;10.58;7.72;;;;;;;20.15;43.24;101725.41;1727026;83;21062;-82
2022/10/16 03:00:36;;;;;;;8.50;6.92;;;;;;;20.15;43.21;101728.17;1727194;81;21538;-82
2022/10/16 03:03:03;;;;;;;11.63;7.35;;;;;;;20.15;43.21;101732.31;1726940;81;21072;-82
2022/10/16 03:05:29;;;;;;;11.60;7.42;;;;;;;20.15;43.20;101734.53;1755121;80;21052;-82
2022/10/16 03:07:56;;;;;;;13.25;7.33;;;;;;;20.13;43.19;101732.59;1717160;82;21212;-82
2022/10/16 03:10:22;;;;;;;9.25;7.28;;;;;;;20.14;43.18;101733.42;1727266;83;20949;-82
2022/10/16 03:12:48;;;;;;;9.38;6.97;;;;;;;20.14;43.18;101730.66;1757465;81;21180;-82
2022/10/16 03:15:14;;;;;;;11.05;7.53;;;;;;;20.14;43.19;101738.95;1772199;81;21006;-82
2022/10/16 03:17:41;;;;;;;10.05;7.00;;;;;;;20.15;43.17;101735.08;1769034;81;21069;-82
2022/10/16 03:20:08;;;;;;;10.80;6.65;;;;;;;20.13;43.15;101734.53;1753418;81;21113;-83
2022/10/16 03:22:34;;;;;;;10.03;7.15;;;;;;;20.14;43.17;101738.95;1753632;81;21034;-82
2022/10/16 03:25:00;;;;;;;11.00;7.45;;;;;;;20.13;43.15;101746.41;1753539;81;21496;-82
2022/10/16 03:27:27;;;;;;;10.20;6.95;;;;;;;20.13;43.14;101746.41;1753180;81;21046;-82
2022/10/16 03:29:53;;;;;;;10.70;7.37;;;;;;;20.13;43.13;101745.59;1753691;81;21002;-83
2022/10/16 03:32:25;;;;;;;11.30;7.22;;;;;;;20.12;43.12;101753.05;1753621;81;21134;-81
2022/10/16 03:34:54;;;;;;;8.83;6.47;;;;;;;20.13;43.11;101749.73;1753123;81;21085;-82
2022/10/16 03:37:20;;;;;;;10.63;6.80;;;;;;;20.12;43.12;101751.66;1753581;81;21038;-82
2022/10/16 03:39:46;;;;;;;10.23;7.20;;;;;;;20.12;43.09;101748.90;1753276;81;21446;-82
2022/10/16 03:42:12;;;;;;;12.47;7.10;;;;;;;20.12;43.09;101753.05;1753212;81;21057;-82
2022/10/16 03:44:39;;;;;;;8.88;7.00;;;;;;;20.12;43.07;101746.14;1753693;81;21162;-82
2022/10/16 03:47:05;;;;;;;11.28;7.30;;;;;;;20.11;43.06;101742.31;1753655;81;21484;-83
2022/10/16 03:49:37;;;;;;;12.00;7.20;;;;;;;20.11;43.05;101740.38;1745050;81;21661;-82
2022/10/16 03:52:04;;;;;;;9.00;6.75;;;;;;;20.11;43.05;101738.98;1752892;81;21001;-82
2022/10/16 03:54:30;;;;;;;11.50;7.87;;;;;;;20.10;43.03;101737.89;1753476;81;21062;-82
2022/10/16 03:56:56;;;;;;;9.78;6.65;;;;;;;20.11;43.02;101740.38;1770221;81;21567;-82
2022/10/16 03:59:23;;;;;;;8.50;6.42;;;;;;;20.11;43.02;101739.55;1770484;81;21082;-82
2022/10/16 04:01:49;;;;;;;8.93;7.08;;;;;;;20.09;43.00;101742.59;1752069;81;21092;-82
2022/10/16 04:04:15;;;;;;;10.28;7.30;;;;;;;20.10;43.01;101740.66;1721738;83;20987;-82
2022/10/16 04:06:42;;;;;;;9.53;7.08;;;;;;;20.08;43.01;101743.14;1722113;82;21099;-84
2022/10/16 04:09:08;;;;;;;9.13;6.90;;;;;;;20.08;43.01;101744.52;1721939;82;21220;-82
2022/10/16 04:11:34;;;;;;;10.55;6.65;;;;;;;20.10;43.02;101753.91;1721658;82;20969;-82
2022/10/16 04:14:00;;;;;;;7.75;5.87;;;;;;;20.08;43.00;101755.57;1705510;83;21025;-82
2022/10/16 04:16:27;;;;;;;9.48;6.37;;;;;;;20.07;42.98;101753.92;1723933;81;21515;-82
2022/10/16 04:18:53;;;;;;;10.00;6.72;;;;;;;20.08;43.00;101755.57;1722803;81;21080;-81
2022/10/16 04:21:19;;;;;;;8.70;6.70;;;;;;;20.07;42.97;101764.97;1753942;81;21096;-83
2022/10/16 04:23:46;;;;;;;8.90;7.20;;;;;;;20.08;42.96;101765.80;1719293;81;21326;-82
2022/10/16 04:26:12;;;;;;;12.10;6.47;;;;;;;20.07;42.96;101762.20;1719388;81;21104;-82
2022/10/16 04:28:38;;;;;;;10.00;6.53;;;;;;;20.07;42.97;101760.03;1753831;81;21474;-82
2022/10/16 04:31:06;;;;;;;10.10;6.58;;;;;;;20.07;42.97;101763.59;1753852;81;21052;-82
2022/10/16 04:33:32;;;;;;;10.03;6.60;;;;;;;20.06;42.97;101764.72;1755033;80;21099;-82
2022/10/16 04:35:59;;;;;;;9.65;6.53;;;;;;;20.08;42.94;101764.41;1754991;80;20980;-83
2022/10/16 04:38:26;;;;;;;8.45;6.42;;;;;;;20.06;42.94;101768.04;1755288;81;21091;-82
2022/10/16 04:40:52;;;;;;;10.40;6.97;;;;;;;20.06;42.92;101781.85;1755214;80;21087;-82
2022/10/16 04:43:19;;;;;;;9.73;7.28;;;;;;;20.06;42.92;101779.92;1725742;81;21027;-82
2022/10/16 04:45:45;;;;;;;8.58;6.08;;;;;;;20.05;42.92;101779.64;1755460;80;21267;-83
2022/10/16 04:48:11;;;;;;;8.65;6.67;;;;;;;20.06;42.90;101783.23;1719164;82;21091;-82
2022/10/16 04:50:37;;;;;;;8.83;6.40;;;;;;;20.06;42.90;101784.61;1755237;81;21051;-82
2022/10/16 04:53:04;;;;;;;9.20;5.87;;;;;;;20.05;42.89;101790.70;1755188;81;21019;-82
2022/10/16 04:55:30;;;;;;;8.13;5.87;;;;;;;20.05;42.89;101792.08;1719318;82;20994;-83
2022/10/16 04:57:56;;;;;;;9.53;7.00;;;;;;;20.04;42.92;101791.80;1719280;83;21081;-83
2022/10/16 05:00:23;;;;;;;10.78;7.20;;;;;;;20.04;42.90;101791.80;1697035;83;21024;-83
2022/10/16 05:02:52;;;;;;;9.63;6.67;;;;;;;20.04;42.88;101793.73;1750290;80;21059;-83
2022/10/16 05:05:21;;;;;;;8.35;6.37;;;;;;;20.04;42.90;101802.84;1719365;82;20933;-82
2022/10/16 05:07:49;;;;;;;8.20;6.28;;;;;;;20.04;42.90;101801.47;1755429;80;21127;-82
2022/10/16 05:10:16;;;;;;;9.28;6.35;;;;;;;20.03;42.89;101801.20;1727294;82;21153;-83
2022/10/16 05:12:42;;;;;;;8.78;6.78;;;;;;;20.03;42.86;101799.81;1730793;81;21056;-83
2022/10/16 05:15:09;;;;;;;8.95;6.58;;;;;;;20.03;42.86;101808.66;1717777;82;20945;-83
2022/10/16 05:17:36;;;;;;;9.78;6.85;;;;;;;20.03;42.84;101812.80;1746363;80;21032;-83
2022/10/16 05:20:03;;;;;;;9.00;6.50;;;;;;;20.04;42.83;101819.98;1746616;82;21523;-82
2022/10/16 05:22:29;;;;;;;9.90;6.22;;;;;;;20.04;42.83;101824.13;1746757;80;21486;-82
2022/10/16 05:24:55;;;;;;;9.65;7.00;;;;;;;20.04;42.82;101832.41;1746277;81;21502;-82
2022/10/16 05:27:22;;;;;;;10.53;6.75;;;;;;;20.02;42.84;101823.05;1746660;80;21052;-82
2022/10/16 05:29:48;;;;;;;7.92;5.97;;;;;;;20.02;42.79;101829.95;1746457;80;21067;-83
2022/10/16 05:32:15;;;;;;;10.08;6.33;;;;;;;20.03;42.77;101840.42;1746261;80;21501;-82
2022/10/16 05:34:42;;;;;;;8.28;6.25;;;;;;;20.02;42.77;101838.24;1746393;80;21132;-83
2022/10/16 05:37:08;;;;;;;9.08;6.45;;;;;;;20.02;42.77;101847.91;1746649;80;21031;-82
2022/10/16 05:39:36;;;;;;;10.35;6.65;;;;;;;20.02;42.78;101845.15;1746435;81;21456;-83
2022/10/16 05:42:03;;;;;;;11.43;6.40;;;;;;;20.03;42.78;101854.23;1746624;81;21020;-83
2022/10/16 05:44:29;;;;;;;9.45;6.78;;;;;;;20.03;42.76;101852.85;1745659;80;21008;-83
2022/10/16 05:46:56;;;;;;;7.85;5.70;;;;;;;20.02;42.75;101853.44;1691672;83;21199;-83
2022/10/16 05:49:22;;;;;;;8.50;6.37;;;;;;;20.02;42.73;101852.61;1718494;82;21087;-83
2022/10/16 05:51:48;;;;;;;9.10;6.45;;;;;;;20.02;42.72;101856.75;1718489;82;21191;-82
2022/10/16 05:54:15;;;;;;;8.10;6.10;;;;;;;20.02;42.72;101858.13;1718214;82;21616;-82
2022/10/16 05:56:41;;;;;;;9.03;5.80;;;;;;;20.01;42.70;101863.38;1718296;82;21401;-82
2022/10/16 05:59:08;;;;;;;8.55;5.90;;;;;;;20.03;42.72;101865.28;1718510;83;21523;-82
2022/10/16 06:01:35;;;;;;;9.10;6.12;;;;;;;20.01;42.69;101868.91;1691426;83;21583;-82
2022/10/16 06:04:01;;;;;;;8.63;6.30;;;;;;;20.01;42.66;101870.29;1718602;82;21040;-82
2022/10/16 06:06:28;;;;;;;11.40;6.50;;;;;;;20.02;42.65;101879.68;1718539;82;21511;-82
2022/10/16 06:08:54;;;;;;;9.73;6.20;;;;;;;20.01;42.67;101882.72;1718534;82;21044;-82
2022/10/16 06:11:23;;;;;;;7.62;5.80;;;;;;;20.01;42.67;101888.24;1718740;83;21468;-82
2022/10/16 06:13:52;;;;;;;8.35;6.17;;;;;;;20.01;42.67;101894.59;1713769;83;21079;-82
2022/10/16 06:16:19;;;;;;;7.67;5.75;;;;;;;20.02;42.63;101902.33;1684827;84;21031;-82
2022/10/16 06:18:46;;;;;;;10.72;6.17;;;;;;;20.00;42.63;101894.32;1667180;84;21689;-82
2022/10/16 06:21:18;;;;;;;8.33;6.10;;;;;;;20.01;42.59;101893.77;1688752;83;21114;-83
2022/10/16 06:23:48;;;;;;;8.35;5.80;;;;;;;20.00;42.60;101902.61;1712044;83;21088;-82
2022/10/16 06:26:17;;;;;;;7.95;5.58;;;;;;;20.01;42.60;101904.81;1712161;83;21088;-82
2022/10/16 06:28:48;;;;;;;8.50;6.05;;;;;;;20.00;42.61;101903.16;1712413;83;21049;-82
2022/10/16 06:31:15;;;;;;;9.28;5.87;;;;;;;20.01;42.62;101907.58;1712167;82;21096;-82
2022/10/16 06:33:41;;;;;;;7.60;5.78;;;;;;;20.00;42.58;101915.03;1712297;82;20978;-82
2022/10/16 06:36:14;;;;;;;8.40;5.85;;;;;;;19.99;42.60;101903.71;1712154;83;21482;-82
2022/10/16 06:38:40;;;;;;;7.95;6.10;;;;;;;20.00;42.60;101907.30;1712040;83;21029;-82
2022/10/16 06:41:07;;;;;;;6.72;5.58;;;;;;;20.00;42.59;101912.27;1712263;82;21495;-82
2022/10/16 06:43:35;;;;;;;8.20;5.75;;;;;;;20.00;42.56;101913.66;1712085;83;21049;-82
2022/10/16 06:46:01;;;;;;;8.50;5.75;;;;;;;20.00;42.56;101916.42;1712031;83;20878;-82
2022/10/16 06:48:28;;;;;;;8.45;5.83;;;;;;;20.00;42.52;101912.27;1712343;82;21224;-82
2022/10/16 06:51:12;;;;;;;7.58;5.30;;;;;;;20.00;42.53;101914.20;1712262;83;21558;-82
2022/10/16 06:53:41;;;;;;;8.60;5.87;;;;;;;20.01;42.56;101925.53;1712163;83;21108;-83
2022/10/16 06:56:12;;;;;;;8.05;5.90;;;;;;;19.99;42.51;101916.14;1712463;83;21029;-83
2022/10/16 06:58:39;;;;;;;6.62;5.75;;;;;;;20.00;42.53;101916.97;1713282;82;21119;-82
2022/10/16 07:01:05;;;;;;;8.33;6.00;;;;;;;20.00;42.52;101920.56;1713887;82;21009;-83
2022/10/16 07:03:32;;;;;;;8.13;5.67;;;;;;;20.00;42.52;101921.94;1713764;83;21408;-82
2022/10/16 07:06:09;;;;;;;7.10;5.40;;;;;;;20.00;42.50;101927.47;1709026;83;21032;-83
2022/10/16 07:08:37;;;;;;;9.13;5.67;;;;;;;20.02;42.51;101932.72;1713603;83;21032;-83
2022/10/16 07:11:06;;;;;;;8.50;5.70;;;;;;;20.01;42.49;101942.11;1713837;83;21471;-83
2022/10/16 07:13:37;;;;;;;8.85;5.65;;;;;;;20.00;42.50;101935.75;1713786;82;21630;-83
2022/10/16 07:16:22;;;;;;;9.28;5.20;;;;;;;20.01;42.49;101941.55;1715315;82;21013;-82
2022/10/16 07:18:49;;;;;;;7.78;5.60;;;;;;;20.02;42.46;101941.84;1744734;82;21060;-83
2022/10/16 07:21:20;;;;;;;7.85;5.62;;;;;;;20.02;42.49;101945.15;1719197;82;21586;-83
2022/10/16 07:23:55;;;;;;;7.83;5.35;;;;;;;20.02;42.48;101947.36;1689316;83;21064;-83
2022/10/16 07:26:23;;;;;;;7.03;5.08;;;;;;;20.01;42.49;101948.46;1755021;80;21171;-82
2022/10/16 07:28:49;;;;;;;7.45;5.45;;;;;;;20.01;42.48;101949.84;1719291;82;21037;-83
2022/10/16 07:31:17;;;;;;;7.00;5.83;;;;;;;20.02;42.45;101945.98;1755331;81;21063;-82
2022/10/16 07:33:44;;;;;;;7.62;5.08;;;;;;;20.02;42.44;101943.77;1724134;80;21060;-83
2022/10/16 07:36:12;;;;;;;8.08;5.60;;;;;;;20.02;42.42;101943.22;1753546;81;20954;-82
2022/10/16 07:38:38;;;;;;;7.65;5.22;;;;;;;20.02;42.43;101936.86;1753684;80;21025;-82
2022/10/16 07:41:10;;;;;;;6.92;4.95;;;;;;;20.03;42.42;101942.08;1753520;81;21009;-83
2022/10/16 07:43:37;;;;;;;8.43;5.67;;;;;;;20.03;42.41;101937.94;1753875;80;21068;-82
2022/10/16 07:46:03;;;;;;;6.55;5.20;;;;;;;20.02;42.42;101936.31;1723002;81;21580;-82
2022/10/16 07:48:32;;;;;;;6.30;5.15;;;;;;;20.03;42.38;101933.80;1753682;81;21079;-84
2022/10/16 07:51:04;;;;;;;8.45;5.70;;;;;;;20.03;42.37;101931.03;1753803;81;21590;-82
2022/10/16 07:53:30;;;;;;;7.42;5.45;;;;;;;20.02;42.38;101928.02;1753737;81;21534;-82
2022/10/16 07:56:01;;;;;;;6.90;5.17;;;;;;;20.03;42.37;101935.17;1753531;81;21487;-83
2022/10/16 07:58:28;;;;;;;7.87;5.53;;;;;;;20.03;42.38;101936.55;1753767;80;21075;-82
2022/10/16 08:00:55;;;;;;;8.43;5.45;;;;;;;20.04;42.41;101936.83;1753760;81;21475;-83
2022/10/16 08:03:22;;;;;;;6.97;5.00;;;;;;;20.04;42.39;101935.45;1753211;81;21172;-82
2022/10/16 08:05:48;;;;;;;7.20;5.30;;;;;;;20.04;42.41;101923.57;1753388;81;21538;-83
2022/10/16 08:08:15;;;;;;;7.53;5.12;;;;;;;20.04;42.41;101927.72;1753600;81;21079;-82
2022/10/16 08:10:42;;;;;;;7.10;4.83;;;;;;;20.04;42.41;101929.92;1753067;81;21033;-83
2022/10/16 08:13:08;;;;;;;9.33;5.15;;;;;;;20.04;42.34;101935.45;1753741;81;21485;-83
2022/10/16 08:15:34;;;;;;;7.15;5.08;;;;;;;20.05;42.35;101930.75;1753301;80;21041;-82
2022/10/16 08:18:02;;;;;;;6.03;4.55;;;;;;;20.04;42.36;101934.07;1753185;81;21382;-82
2022/10/16 08:20:35;;;;;;;6.30;5.20;;;;;;;20.04;42.39;101934.07;1753179;81;21033;-83
2022/10/16 08:23:02;;;;;;;7.37;5.47;;;;;;;20.05;42.37;101943.19;1723283;81;39067;-84
2022/10/16 08:25:29;;;;;;;8.60;5.92;;;;;;;20.05;42.35;101941.80;1753460;81;21096;-83
2022/10/16 08:27:55;;;;;;;8.13;5.35;;;;;;;20.06;42.33;101941.53;1753763;81;21173;-83
2022/10/16 08:30:23;;;;;;;8.43;5.25;;;;;;;20.05;42.35;101945.40;1753809;81;21060;-82
2022/10/16 08:32:55;;;;;;;6.42;4.83;;;;;;;20.06;42.36;101942.08;1753406;81;21052;-83
2022/10/16 08:35:21;;;;;;;6.65;4.95;;;;;;;20.06;42.35;101940.70;1753629;81;21036;-83
2022/10/16 08:37:47;;;;;;;6.78;5.15;;;;;;;20.07;42.36;101953.41;1753780;81;21081;-82
2022/10/16 08:40:24;;;;;;;6.75;4.85;;;;;;;20.07;42.33;101947.89;1753371;81;21530;-82
2022/10/16 08:43:26;;;;;;;8.70;5.20;;;;;;;20.06;42.34;101951.20;1753579;81;21127;-83
2022/10/16 08:46:18;;;;;;;5.83;4.72;;;;;;;20.07;42.33;101947.30;1753412;81;21033;-82
2022/10/16 08:48:53;;;;;;;7.87;5.17;;;;;;;20.06;42.29;101951.20;1701647;83;21597;-83
2022/10/16 08:51:35;;;;;;;7.33;5.08;;;;;;;20.06;42.30;101953.13;1719682;83;21095;-83
2022/10/16 08:54:06;;;;;;;9.15;5.10;;;;;;;20.06;42.33;101947.05;1720028;83;21087;-82
2022/10/16 08:56:33;;;;;;;6.35;4.75;;;;;;;20.05;42.33;101945.40;1719440;82;21553;-82
2022/10/16 08:58:59;;;;;;;6.35;4.87;;;;;;;20.06;42.28;101949.81;1719768;82;21067;-83
2022/10/16 09:01:41;;;;;;;7.37;5.28;;;;;;;20.06;42.31;101947.05;1719857;82;21383;-83
2022/10/16 09:05:04;;;;;;;7.75;5.17;;;;;;;20.07;42.26;101947.30;1719524;82;21656;-84
2022/10/16 09:07:56;;;;;;;7.08;4.47;;;;;;;20.06;42.28;101948.44;1719969;83;21837;-82
2022/10/16 09:10:33;;;;;;;6.00;4.70;;;;;;;20.06;42.27;101943.46;1719425;82;21554;-82
2022/10/16 09:13:20;;;;;;;7.67;5.10;;;;;;;20.06;42.28;101943.46;1719875;82;21016;-82
2022/10/16 09:16:20;;;;;;;6.72;4.92;;;;;;;20.05;42.28;101937.11;1719516;82;21154;-82
2022/10/16 09:19:19;;;;;;;8.88;4.85;;;;;;;20.06;42.27;101940.70;1719271;82;21510;-82
2022/10/16 09:21:47;;;;;;;7.97;5.08;;;;;;;20.05;42.29;101941.25;1719547;82;21075;-82
2022/10/16 09:24:19;;;;;;;11.55;5.37;;;;;;;20.05;42.28;101939.04;1753332;81;20985;-83
2022/10/16 09:26:46;;;;;;;8.80;5.50;;;;;;;20.04;42.28;101943.73;1723942;81;21463;-82
2022/10/16 09:29:21;;;;;;;6.62;5.08;;;;;;;20.04;42.27;101942.91;1753228;81;21052;-82
2022/10/16 09:31:47;;;;;;;6.67;4.90;;;;;;;20.05;42.29;101941.80;1723031;81;21047;-83
2022/10/16 09:34:22;;;;;;;6.22;4.92;;;;;;;20.05;42.27;101945.40;1753239;80;21128;-82
2022/10/16 09:36:49;;;;;;;6.60;4.78;;;;;;;20.05;42.29;101941.25;1753087;81;21129;-82
2022/10/16 09:39:15;;;;;;;8.10;5.30;;;;;;;20.06;42.28;101944.30;1753485;81;21543;-82
2022/10/16 09:41:43;;;;;;;7.75;5.22;;;;;;;20.06;42.29;101942.08;1753511;81;21091;-82
2022/10/16 09:44:24;;;;;;;6.62;4.78;;;;;;;20.06;42.28;101940.70;1753390;81;21585;-82
2022/10/16 09:47:06;;;;;;;8.05;5.33;;;;;;;20.07;42.28;101945.92;1753395;81;21589;-83
2022/10/16 09:49:32;;;;;;;6.65;4.60;;;;;;;20.07;42.26;101936.83;1753671;81;21028;-82
2022/10/16 09:52:13;;;;;;;7.33;5.35;;;;;;;20.06;42.27;101930.48;1753889;81;21032;-83
2022/10/16 09:54:57;;;;;;;8.33;4.92;;;;;;;20.08;42.26;101928.79;1752865;80;21502;-83
2022/10/16 09:57:25;;;;;;;6.62;4.95;;;;;;;20.07;42.26;101925.78;1753628;80;21037;-83
2022/10/16 09:59:53;;;;;;;7.35;5.10;;;;;;;20.07;42.26;101927.16;1754009;81;21545;-84
2022/10/16 10:02:37;;;;;;;7.20;5.10;;;;;;;20.07;42.29;101918.29;1726764;82;21535;-84
2022/10/16 10:05:24;;;;;;;6.80;4.97;;;;;;;20.07;42.26;101918.29;1754990;81;21562;-83
2022/10/16 10:08:00;;;;;;;6.92;5.03;;;;;;;20.07;42.26;101915.53;1755061;80;21040;-83
2022/10/16 10:10:29;;;;;;;6.95;5.00;;;;;;;20.07;42.25;101904.48;1754765;81;21103;-83
2022/10/16 10:12:56;;;;;;;6.53;4.85;;;;;;;20.08;42.27;101908.07;1727113;82;21186;-83
2022/10/16 10:15:23;;;;;;;8.35;5.08;;;;;;;20.08;42.28;101909.45;1758397;80;21065;-84
2022/10/16 10:17:55;;;;;;;5.28;4.58;;;;;;;20.07;42.29;101906.45;1771900;80;21133;-83
2022/10/16 10:20:34;;;;;;;7.47;5.45;;;;;;;20.07;42.28;101911.38;1772231;80;22107;-83
2022/10/16 10:23:23;;;;;;;7.00;5.17;;;;;;;20.08;42.28;101906.69;1771879;81;21575;-84
2022/10/16 10:26:09;;;;;;;7.17;4.72;;;;;;;20.07;42.29;101912.77;1772028;80;21108;-82
2022/10/16 10:28:48;;;;;;;6.50;5.10;;;;;;;20.08;42.30;101904.75;1732108;80;20954;-83
2022/10/16 10:31:41;;;;;;;6.60;5.33;;;;;;;20.08;42.29;101901.16;1772234;80;21465;-83
2022/10/16 10:34:42;;;;;;;7.03;4.92;;;;;;;20.07;42.31;101897.58;1771954;81;21018;-84
2022/10/16 10:37:42;;;;;;;6.37;4.80;;;;;;;20.06;42.28;101897.33;1772228;80;21097;-83
2022/10/16 10:40:45;;;;;;;6.50;4.90;;;;;;;20.07;42.28;101901.72;1748068;81;21707;-83
2022/10/16 10:43:50;;;;;;;6.20;4.53;;;;;;;20.06;42.26;101898.71;1725811;81;21115;-83
2022/10/16 10:46:39;;;;;;;6.35;4.47;;;;;;;20.05;42.28;101893.46;1753270;81;21080;-83
2022/10/16 10:49:31;;;;;;;7.30;4.85;;;;;;;20.04;42.29;101891.80;1753496;80;21084;-83
2022/10/16 10:52:33;;;;;;;6.45;4.60;;;;;;;20.04;42.30;101891.25;1753446;80;21645;-83
2022/10/16 10:55:47;;;;;;;5.97;4.83;;;;;;;20.04;42.30;101894.02;1753420;80;21602;-82
2022/10/16 10:58:19;;;;;;;6.53;4.58;;;;;;;20.02;42.29;101881.61;1753308;80;21041;-83
2022/10/16 11:00:59;;;;;;;6.90;4.70;;;;;;;20.02;42.29;101886.59;1753653;80;21413;-82
2022/10/16 11:04:10;;;;;;;7.15;5.20;;;;;;;20.02;42.35;101889.34;1753391;80;21111;-83
2022/10/16 11:06:43;;;;;;;;;;;;;;;20.02;42.34;101885.20;1755278;80;21703;-82
2022/10/16 11:09:41;;;;;;;5.90;4.30;;;;;;;20.01;42.34;101884.09;1766551;80;22015;-83
2022/10/16 11:12:32;;;;;;;6.97;4.80;;;;;;;20.00;42.39;101880.51;1746980;81;20994;-83
2022/10/16 11:15:21;;;;;;;5.75;4.37;;;;;;;20.01;42.38;101877.19;1742636;81;20999;-82
2022/10/16 11:17:55;;;;;;;7.28;5.15;;;;;;;20.01;42.39;101878.58;1734488;82;21045;-82
2022/10/16 11:20:32;;;;;;;6.03;4.40;;;;;;;20.00;42.40;101873.60;1733769;81;21053;-82
2022/10/16 11:23:09;;;;;;;6.95;5.15;;;;;;;20.01;42.38;101871.67;1734096;81;21139;-83
2022/10/16 11:25:36;;;;;;;7.03;4.87;;;;;;;20.01;42.41;101875.81;1703352;82;21080;-82
2022/10/16 11:28:16;;;;;;;7.45;4.70;;;;;;;20.01;42.39;101872.50;1733951;81;21040;-83
2022/10/16 11:30:47;;;;;;;5.20;4.33;;;;;;;20.01;42.42;101875.81;1733692;81;21087;-82
2022/10/16 11:33:37;;;;;;;7.15;4.97;;;;;;;20.02;42.42;101873.33;1734244;82;21623;-82
2022/10/16 11:36:25;;;;;;;6.65;4.75;;;;;;;20.02;42.42;101881.06;1733857;81;21275;-84
2022/10/16 11:39:12;;;;;;;6.53;4.83;;;;;;;20.03;42.42;101874.95;1712752;82;21104;-82
2022/10/16 11:41:49;;;;;;;5.03;4.53;;;;;;;20.03;42.41;101868.05;1733822;81;21020;-83
2022/10/16 11:44:44;;;;;;;6.78;4.58;;;;;;;20.03;42.38;101870.25;1733924;82;21033;-83
2022/10/16 11:47:35;;;;;;;7.25;4.35;;;;;;;20.03;42.40;101863.91;1738702;82;21072;-82